Time;durP1;ratioP1;P1;durP2;ratioP2;P2;SDS_P1;SDS_P2;PMS_P1;PMS_P2;Temp;Humidity;BMP_temperature;BMP_pressure;BME280_temperature;BME280_humidity;BME280_pressure;Samples;Min_cycle;Max_cycle;Signal;HPM_P1;HPM_P2
2022/03/14 00:00:43;;;;;;;;;5.00;5.00;;;;;11.43;62.68;101481.66;5021767;28;45489;-65
2022/03/14 00:03:08;;;;;;;;;5.50;5.00;;;;;11.43;62.56;101479.84;5022567;28;45712;-65
2022/03/14 00:05:34;;;;;;;;;4.50;4.00;;;;;11.40;62.33;101482.59;5024712;28;45305;-65
2022/03/14 00:08:00;;;;;;;;;5.25;4.50;;;;;11.42;62.62;101487.91;5036967;28;45316;-65
2022/03/14 00:10:25;;;;;;;;;7.50;5.25;;;;;11.43;62.54;101498.56;5034831;28;45323;-65
2022/03/14 00:12:55;;;;;;;;;3.00;3.00;;;;;11.43;62.15;101500.38;5021616;28;45411;-65
2022/03/14 00:15:21;;;;;;;;;6.00;4.75;;;;;11.41;62.24;101497.72;5051678;28;46052;-65
2022/03/14 00:17:49;;;;;;;;;4.25;3.00;;;;;11.42;62.52;101502.13;5028869;28;45422;-65
2022/03/14 00:20:15;;;;;;;;;4.75;3.00;;;;;11.43;62.23;101516.41;5036788;28;45570;-64
2022/03/14 00:22:42;;;;;;;;;3.00;3.00;;;;;11.37;62.42;101519.22;5021369;28;46231;-65
2022/03/14 00:25:09;;;;;;;;;3.00;3.00;;;;;11.42;62.21;101533.34;5035603;28;45844;-65
2022/03/14 00:27:35;;;;;;;;;3.00;3.00;;;;;11.34;62.51;101521.94;5040802;28;45423;-65
2022/03/14 00:30:04;;;;;;;;;4.00;2.25;;;;;11.37;62.35;101535.25;5023433;28;45921;-65
2022/03/14 00:32:30;;;;;;;;;3.25;2.00;;;;;11.34;62.41;101535.31;5032967;28;45468;-65
2022/03/14 00:34:56;;;;;;;;;4.00;3.00;;;;;11.39;62.43;101555.66;5039679;28;45724;-65
2022/03/14 00:37:21;;;;;;;;;3.00;2.00;;;;;11.34;62.48;101546.88;5019375;28;45383;-65
2022/03/14 00:39:47;;;;;;;;;2.75;2.75;;;;;11.40;61.99;101561.91;5035822;28;45165;-65
2022/03/14 00:42:13;;;;;;;;;3.50;3.00;;;;;11.34;62.32;101560.25;5021224;28;47332;-65
2022/03/14 00:44:39;;;;;;;;;2.25;2.25;;;;;11.30;62.48;101556.75;5030988;28;45272;-64
2022/03/14 00:47:05;;;;;;;;;4.00;4.00;;;;;11.28;62.60;101557.72;5024493;28;45232;-65
2022/03/14 00:49:30;;;;;;;;;4.75;3.50;;;;;11.36;62.19;101570.91;5020868;28;45226;-65
2022/03/14 00:51:55;;;;;;;;;3.75;2.00;;;;;11.36;62.25;101571.81;5020988;28;46120;-65
2022/03/14 00:54:21;;;;;;;;;4.00;3.00;;;;;11.40;62.44;101584.19;5033930;28;45142;-65
2022/03/14 00:56:46;;;;;;;;;4.00;3.50;;;;;11.40;62.15;101584.19;5034232;28;45395;-65
2022/03/14 00:59:11;;;;;;;;;2.25;2.00;;;;;11.41;62.55;101590.41;5026994;28;45617;-65
2022/03/14 01:01:36;;;;;;;;;2.75;2.25;;;;;11.38;62.43;101595.84;5021252;28;45953;-65
2022/03/14 01:04:02;;;;;;;;;5.75;3.00;;;;;11.41;62.49;101596.63;5037224;28;45320;-65
2022/03/14 01:06:27;;;;;;;;;2.25;2.25;;;;;11.41;62.36;101598.41;5030389;28;45503;-65
2022/03/14 01:08:53;;;;;;;;;6.00;2.00;;;;;11.18;61.69;101569.53;5040467;28;45311;-65
2022/03/14 01:11:18;;;;;;;;;3.25;3.25;;;;;11.38;61.84;101614.56;5040448;28;45665;-65
2022/03/14 01:13:44;;;;;;;;;2.00;2.00;;;;;11.38;62.25;101623.44;5038915;28;45401;-65
2022/03/14 01:16:10;;;;;;;;;3.00;2.00;;;;;11.34;62.08;101611.03;5039431;28;45453;-65
2022/03/14 01:18:36;;;;;;;;;2.00;2.00;;;;;11.31;62.46;101614.66;5026192;28;45686;-64
2022/03/14 01:21:01;;;;;;;;;3.00;2.50;;;;;11.35;62.20;101623.50;5028017;28;46062;-65
2022/03/14 01:23:27;;;;;;;;;3.75;2.00;;;;;11.28;62.02;101620.06;5039991;28;45318;-64
2022/03/14 01:25:52;;;;;;;;;2.00;2.00;;;;;11.35;62.30;101641.34;5037827;28;45231;-65
2022/03/14 01:28:17;;;;;;;;;4.50;3.00;;;;;11.34;62.17;101640.44;5025808;28;45597;-65
2022/03/14 01:30:44;;;;;;;;;3.25;3.25;;;;;11.34;62.31;101643.09;5020386;28;45241;-64
2022/03/14 01:33:11;;;;;;;;;3.00;2.00;;;;;11.31;62.24;101643.19;5034737;28;45491;-65
2022/03/14 01:35:37;;;;;;;;;4.00;3.00;;;;;11.32;62.18;101650.28;5009869;28;45433;-65
2022/03/14 01:38:03;;;;;;;;;2.00;0.00;;;;;11.31;62.11;101653.91;5019980;28;45501;-65
2022/03/14 01:40:28;;;;;;;;;3.00;2.25;;;;;11.24;62.34;101650.47;5018838;28;47969;-65
2022/03/14 01:42:54;;;;;;;;;2.75;2.75;;;;;11.27;62.31;101660.19;5024836;28;45407;-65
2022/03/14 01:45:21;;;;;;;;;3.00;2.25;;;;;11.24;62.32;101655.81;5035743;28;45365;-65
2022/03/14 01:47:48;;;;;;;;;5.00;2.25;;;;;11.23;61.57;101655.84;5025904;28;45374;-65
2022/03/14 01:50:14;;;;;;;;;3.00;2.00;;;;;11.24;62.26;101670.94;5027004;28;45272;-65
2022/03/14 01:52:40;;;;;;;;;2.50;2.00;;;;;11.16;62.13;101657.75;5026961;28;45268;-65
2022/03/14 01:55:07;;;;;;;;;5.00;2.00;;;;;11.20;62.45;101672.81;5046790;28;45391;-65
2022/03/14 01:57:33;;;;;;;;;4.00;2.50;;;;;11.16;62.47;101664.88;5020085;28;45523;-65
2022/03/14 01:59:59;;;;;;;;;3.00;2.00;;;;;11.19;62.57;101679.06;5028553;28;47493;-65
2022/03/14 02:02:24;;;;;;;;;2.00;1.00;;;;;11.17;61.98;101682.69;5027607;28;45502;-65
2022/03/14 02:04:50;;;;;;;;;2.50;2.00;;;;;11.16;61.73;101678.22;5044509;28;45403;-65
2022/03/14 02:07:15;;;;;;;;;2.00;2.00;;;;;11.20;62.26;101677.28;5032244;28;45596;-65
2022/03/14 02:09:40;;;;;;;;;2.00;2.00;;;;;11.18;61.99;101679.97;5028184;28;45456;-65
2022/03/14 02:12:07;;;;;;;;;2.00;2.00;;;;;11.15;61.97;101674.69;5031811;28;45271;-65
2022/03/14 02:14:39;;;;;;;;;2.00;2.00;;;;;11.15;61.77;101673.81;5031978;28;45292;-65
2022/03/14 02:17:05;;;;;;;;;4.50;2.00;;;;;11.10;62.29;101672.09;5029114;28;45260;-65
2022/03/14 02:19:31;;;;;;;;;2.00;2.00;;;;;11.05;61.96;101665.09;5019802;28;46136;-65
2022/03/14 02:21:56;;;;;;;;;2.50;2.25;;;;;11.03;62.38;101665.13;5026687;28;45278;-65
2022/03/14 02:24:21;;;;;;;;;2.00;2.00;;;;;11.02;61.88;101668.69;5050948;28;45387;-65
2022/03/14 02:26:47;;;;;;;;;4.25;2.00;;;;;10.99;61.62;101666.09;5036786;28;45278;-65
2022/03/14 02:29:12;;;;;;;;;1.25;1.25;;;;;10.98;62.08;101664.34;5030284;28;46193;-65
2022/03/14 02:31:38;;;;;;;;;4.00;3.00;;;;;11.05;61.86;101678.47;5020513;28;45249;-65
2022/03/14 02:34:05;;;;;;;;;2.75;2.75;;;;;10.98;61.62;101667.00;5019860;28;45367;-65
2022/03/14 02:36:30;;;;;;;;;2.00;2.00;;;;;11.08;61.62;101687.28;5030186;28;45452;-65
2022/03/14 02:38:56;;;;;;;;;3.00;1.50;;;;;11.05;62.11;101684.66;5019423;28;45581;-65
2022/03/14 02:41:25;;;;;;;;;2.50;1.00;;;;;11.06;62.12;101696.22;5019208;28;45226;-65
2022/03/14 02:43:51;;;;;;;;;2.00;2.00;;;;;11.06;61.69;101698.91;5022738;28;45393;-65
2022/03/14 02:46:17;;;;;;;;;1.25;1.00;;;;;11.05;61.88;101708.72;5029899;28;45396;-65
2022/03/14 02:48:43;;;;;;;;;2.00;1.75;;;;;10.98;61.84;101704.41;5019182;28;45378;-65
2022/03/14 02:51:08;;;;;;;;;3.00;3.00;;;;;10.98;62.06;101725.78;5018997;28;45324;-65
2022/03/14 02:53:34;;;;;;;;;2.50;2.50;;;;;10.95;61.84;101720.50;5031094;28;45529;-65
2022/03/14 02:55:59;;;;;;;;;2.00;2.00;;;;;10.97;62.22;101732.03;5025294;28;45204;-65
2022/03/14 02:58:29;;;;;;;;;6.75;4.00;;;;;10.99;61.93;101740.00;5038906;28;46379;-65
2022/03/14 03:00:55;;;;;;;;;2.00;2.00;;;;;10.94;62.07;101734.75;5021158;28;45253;-65
2022/03/14 03:03:21;;;;;;;;;2.25;1.00;;;;;10.90;61.87;101735.72;5034245;28;45409;-65
2022/03/14 03:05:46;;;;;;;;;1.25;1.25;;;;;10.94;62.06;101745.44;5029649;28;45261;-65
2022/03/14 03:08:12;;;;;;;;;3.25;2.00;;;;;10.97;62.10;101756.06;5022249;28;45328;-64
2022/03/14 03:10:37;;;;;;;;;4.75;2.25;;;;;10.93;61.79;101751.72;5022668;28;45248;-65
2022/03/14 03:13:03;;;;;;;;;2.00;2.00;;;;;10.97;62.04;101771.22;5022257;28;45292;-65
2022/03/14 03:15:29;;;;;;;;;3.00;3.00;;;;;10.97;62.27;101771.22;5021344;28;45444;-65
2022/03/14 03:17:55;;;;;;;;;2.75;2.75;;;;;10.92;62.20;101768.63;5027053;28;45312;-65
2022/03/14 03:20:22;;;;;;;;;2.50;2.50;;;;;10.99;62.06;101777.41;5022650;28;45328;-65
2022/03/14 03:22:48;;;;;;;;;2.00;2.00;;;;;10.99;61.64;101791.66;5022401;28;45399;-65
2022/03/14 03:25:13;;;;;;;;;3.00;1.00;;;;;10.94;62.25;101782.84;5025987;28;45356;-65
2022/03/14 03:27:39;;;;;;;;;3.00;2.75;;;;;10.94;61.75;101790.84;5023641;28;45950;-65
2022/03/14 03:30:05;;;;;;;;;2.00;2.00;;;;;10.85;62.08;101775.88;5022208;28;45379;-65
2022/03/14 03:32:30;;;;;;;;;3.00;1.50;;;;;10.92;61.51;101793.53;5033398;28;45313;-65
2022/03/14 03:34:56;;;;;;;;;7.00;3.25;;;;;10.88;62.08;101788.31;5022688;28;45622;-65
2022/03/14 03:37:21;;;;;;;;;2.75;2.75;;;;;10.86;61.96;101790.09;5048634;28;47193;-65
2022/03/14 03:39:46;;;;;;;;;2.00;2.00;;;;;10.81;61.66;101794.63;5033707;28;45189;-64
2022/03/14 03:42:12;;;;;;;;;2.50;2.50;;;;;10.77;61.80;101806.28;5029788;28;45194;-65
2022/03/14 03:44:37;;;;;;;;;2.75;2.75;;;;;10.86;62.08;101822.16;5050125;28;45232;-65
2022/03/14 03:47:03;;;;;;;;;5.25;2.00;;;;;10.78;61.70;101808.06;5027309;28;46992;-65
2022/03/14 03:49:30;;;;;;;;;2.00;2.00;;;;;10.84;61.88;101818.63;5021728;28;45316;-65
2022/03/14 03:51:55;;;;;;;;;3.25;2.50;;;;;10.88;61.95;101831.03;5022140;28;45178;-65
2022/03/14 03:54:21;;;;;;;;;2.75;2.25;;;;;10.86;61.83;101830.16;5027622;28;45557;-64
2022/03/14 03:56:47;;;;;;;;;3.25;1.75;;;;;10.84;61.58;101832.88;5039352;28;46299;-65
2022/03/14 03:59:13;;;;;;;;;4.50;3.00;;;;;10.82;61.56;101837.34;5035270;28;45425;-65
2022/03/14 04:01:38;;;;;;;;;3.00;1.75;;;;;10.50;61.82;101787.13;5026489;28;45450;-65
2022/03/14 04:04:04;;;;;;;;;4.00;4.00;;;;;10.81;61.84;101854.28;5037139;28;45450;-65
2022/03/14 04:06:30;;;;;;;;;2.25;2.25;;;;;10.75;61.48;101844.56;5027887;28;46063;-64
2022/03/14 04:09:00;;;;;;;;;3.00;3.00;;;;;10.78;61.35;101866.81;5031928;28;45456;-65
2022/03/14 04:11:27;;;;;;;;;2.25;2.25;;;;;10.75;61.47;101859.72;5030288;28;45384;-64
2022/03/14 04:13:53;;;;;;;;;1.75;1.75;;;;;10.72;61.31;101865.97;5025371;28;45427;-65
2022/03/14 04:16:22;;;;;;;;;2.00;2.00;;;;;10.70;61.42;101862.44;5027986;28;47243;-65
2022/03/14 04:18:47;;;;;;;;;4.00;2.00;;;;;10.71;61.87;101866.91;5024993;28;45569;-65
2022/03/14 04:21:14;;;;;;;;;4.00;2.00;;;;;10.75;61.57;101881.97;5021667;28;45552;-65
2022/03/14 04:23:39;;;;;;;;;4.50;3.00;;;;;10.61;61.26;101859.94;5033379;28;45569;-65
2022/03/14 04:26:05;;;;;;;;;2.25;2.25;;;;;10.68;61.56;101871.41;5026623;28;46221;-65
2022/03/14 04:28:30;;;;;;;;;4.00;4.00;;;;;10.73;61.51;101890.91;5020929;28;45201;-64
2022/03/14 04:30:56;;;;;;;;;6.50;2.50;;;;;10.70;61.60;101893.63;5021388;28;46656;-65
2022/03/14 04:33:21;;;;;;;;;3.00;3.00;;;;;10.65;61.00;101887.47;5020019;28;45614;-64
2022/03/14 04:35:46;;;;;;;;;4.00;4.00;;;;;10.67;61.39;101897.22;5021896;28;45475;-65
2022/03/14 04:38:13;;;;;;;;;5.00;2.00;;;;;10.64;61.42;101891.94;5037991;28;45459;-64
2022/03/14 04:40:38;;;;;;;;;3.00;1.75;;;;;10.66;61.03;101914.16;5028337;28;45423;-64
2022/03/14 04:43:09;;;;;;;;;5.00;3.25;;;;;10.63;61.46;101918.66;5036107;28;45695;-65
2022/03/14 04:45:36;;;;;;;;;2.75;2.75;;;;;10.63;61.01;101919.53;5036339;28;45352;-65
2022/03/14 04:48:04;;;;;;;;;4.50;3.25;;;;;10.61;61.32;101929.38;5021061;28;45640;-65
2022/03/14 04:50:30;;;;;;;;;4.50;4.50;;;;;10.51;61.01;101911.72;5021056;28;45359;-65
2022/03/14 04:52:55;;;;;;;;;3.25;2.75;;;;;10.56;61.00;101931.22;5022289;28;45443;-65
2022/03/14 04:55:20;;;;;;;;;3.50;3.00;;;;;10.49;61.33;101918.81;5020652;28;46119;-65
2022/03/14 04:57:46;;;;;;;;;5.00;4.00;;;;;10.53;61.55;101928.56;5030427;28;45366;-65
2022/03/14 05:00:12;;;;;;;;;3.00;3.00;;;;;10.51;61.10;101933.06;5020716;28;45305;-65
2022/03/14 05:02:38;;;;;;;;;4.00;3.50;;;;;10.50;61.17;101934.81;5020834;28;45222;-65
2022/03/14 05:05:03;;;;;;;;;4.50;4.00;;;;;10.46;61.11;101926.91;5023623;28;46200;-65
2022/03/14 05:07:29;;;;;;;;;3.50;3.50;;;;;10.45;60.98;101939.34;5020471;28;45208;-64
2022/03/14 05:09:54;;;;;;;;;4.50;3.00;;;;;10.43;61.46;101934.94;5041307;28;45354;-64
2022/03/14 05:12:20;;;;;;;;;4.25;3.25;;;;;10.46;61.36;101937.59;5033870;28;45253;-65
2022/03/14 05:14:45;;;;;;;;;3.00;3.00;;;;;10.46;61.19;101950.94;5019027;28;48208;-64
2022/03/14 05:17:11;;;;;;;;;2.75;2.75;;;;;10.40;61.16;101948.31;5037940;28;45367;-64
2022/03/14 05:19:36;;;;;;;;;4.00;4.00;;;;;10.46;61.11;101961.59;5020942;28;45945;-65
2022/03/14 05:22:03;;;;;;;;;5.25;4.00;;;;;10.44;61.28;101966.06;5031713;28;45609;-64
2022/03/14 05:24:29;;;;;;;;;3.75;3.75;;;;;10.32;61.23;101941.31;5031340;28;46886;-65
2022/03/14 05:26:55;;;;;;;;;4.50;4.50;;;;;10.37;61.27;101965.25;5035544;28;45478;-65
2022/03/14 05:29:21;;;;;;;;;4.50;2.75;;;;;10.35;61.17;101970.59;5036662;28;45418;-65
2022/03/14 05:31:46;;;;;;;;;4.75;4.75;;;;;10.24;60.93;101945.81;5043672;28;45479;-64
2022/03/14 05:34:12;;;;;;;;;3.25;3.00;;;;;10.19;60.89;101953.88;5029139;28;48487;-65
2022/03/14 05:36:40;;;;;;;;;12.00;4.50;;;;;10.30;61.24;101972.41;5019918;28;45253;-65
2022/03/14 05:39:06;;;;;;;;;4.00;3.00;;;;;10.26;61.28;101964.47;5022255;28;45237;-64
2022/03/14 05:41:32;;;;;;;;;4.25;3.50;;;;;10.24;61.21;101977.84;5038568;28;45771;-65
2022/03/14 05:43:57;;;;;;;;;5.50;4.00;;;;;10.25;60.87;101982.25;5032178;28;46180;-64
2022/03/14 05:46:23;;;;;;;;;3.25;3.25;;;;;10.20;60.94;101986.75;5031679;28;45416;-64
2022/03/14 05:48:48;;;;;;;;;5.00;5.00;;;;;10.24;61.04;101987.59;5020177;28;45449;-65
2022/03/14 05:51:13;;;;;;;;;5.50;4.25;;;;;10.23;60.88;101985.84;5020111;28;45354;-65
2022/03/14 05:53:39;;;;;;;;;6.00;4.25;;;;;10.18;61.14;101983.22;5026001;28;45395;-64
2022/03/14 05:56:04;;;;;;;;;4.00;3.00;;;;;10.11;61.07;101984.22;5031313;28;45323;-64
2022/03/14 05:58:31;;;;;;;;;5.25;4.25;;;;;10.11;60.80;101998.44;5019722;28;45237;-65
2022/03/14 06:00:56;;;;;;;;;4.75;3.25;;;;;10.07;61.37;101996.66;5019967;28;45388;-65
2022/03/14 06:03:22;;;;;;;;;4.75;4.00;;;;;10.07;61.20;102006.47;5045196;28;45255;-64
2022/03/14 06:05:48;;;;;;;;;6.25;5.00;;;;;10.06;61.52;102004.72;5031099;28;45170;-64
2022/03/14 06:08:14;;;;;;;;;5.75;5.00;;;;;10.02;61.53;102007.41;5024111;28;45224;-65
2022/03/14 06:10:40;;;;;;;;;4.00;3.00;;;;;10.02;61.48;102003.84;5031580;28;45560;-64
2022/03/14 06:13:05;;;;;;;;;5.00;4.00;;;;;9.99;61.06;102015.44;5028019;28;46061;-64
2022/03/14 06:15:30;;;;;;;;;9.00;4.75;;;;;9.93;61.21;102004.81;5040913;28;45412;-65
2022/03/14 06:17:56;;;;;;;;;9.00;4.75;;;;;9.91;61.41;101997.75;5033688;28;45315;-64
2022/03/14 06:20:22;;;;;;;;;5.25;4.00;;;;;9.95;61.17;102016.34;5036341;28;45268;-64
2022/03/14 06:22:47;;;;;;;;;4.00;4.00;;;;;9.81;61.18;101997.81;5039358;28;46298;-65
2022/03/14 06:25:14;;;;;;;;;8.50;4.50;;;;;9.95;61.26;102018.13;5023890;28;45508;-65
2022/03/14 06:27:40;;;;;;;;;4.75;4.00;;;;;9.91;61.50;102017.28;5035158;28;45526;-64
2022/03/14 06:30:07;;;;;;;;;8.25;6.00;;;;;9.88;61.57;102027.09;5025809;28;45440;-64
2022/03/14 06:32:37;;;;;;;;;5.00;4.00;;;;;9.93;61.33;102049.28;5039278;28;45392;-64
2022/03/14 06:35:08;;;;;;;;;6.25;3.75;;;;;9.86;61.43;102032.44;5031481;28;45553;-65
2022/03/14 06:37:33;;;;;;;;;4.00;4.00;;;;;9.88;60.99;102051.13;5026043;28;45632;-64
2022/03/14 06:39:59;;;;;;;;;10.75;9.00;;;;;9.90;61.60;102066.19;5030854;28;45297;-63
2022/03/14 06:42:25;;;;;;;;;5.00;5.00;;;;;9.89;61.60;102077.78;5029814;28;45675;-65
2022/03/14 06:44:50;;;;;;;;;8.50;7.00;;;;;9.83;61.41;102072.47;5032056;28;45339;-66
2022/03/14 06:47:17;;;;;;;;;8.75;5.75;;;;;9.88;61.68;102085.78;5025931;28;45527;-64
2022/03/14 06:49:44;;;;;;;;;9.00;5.00;;;;;9.88;61.17;102093.78;5025188;28;45275;-64
2022/03/14 06:52:13;;;;;;;;;6.25;5.00;;;;;9.83;61.80;102081.34;5033278;28;46077;-64
2022/03/14 06:54:39;;;;;;;;;3.75;3.75;;;;;9.85;61.42;102107.13;5034408;28;45509;-65
2022/03/14 06:57:08;;;;;;;;;10.50;5.75;;;;;9.83;61.82;102128.50;5035042;28;45325;-65
2022/03/14 06:59:34;;;;;;;;;12.25;7.50;;;;;9.80;61.83;102126.72;5030888;28;45482;-64
2022/03/14 07:02:00;;;;;;;;;4.50;4.00;;;;;9.80;61.48;102128.50;5032136;28;46464;-65
2022/03/14 07:04:26;;;;;;;;;5.00;5.00;;;;;9.73;62.00;102126.78;5033230;28;45586;-65
2022/03/14 07:06:52;;;;;;;;;5.00;5.00;;;;;9.79;62.08;102132.09;5035854;28;45494;-65
2022/03/14 07:09:17;;;;;;;;;6.25;4.50;;;;;9.81;61.91;102131.16;5044929;28;45262;-65
2022/03/14 07:11:43;;;;;;;;;8.00;6.25;;;;;9.75;61.95;102123.19;5043726;28;46274;-65
2022/03/14 07:14:08;;;;;;;;;5.50;4.50;;;;;9.76;61.97;102135.66;5035391;28;45271;-65
2022/03/14 07:16:34;;;;;;;;;6.25;4.50;;;;;9.79;61.83;102146.28;5030651;28;45238;-65
2022/03/14 07:18:59;;;;;;;;;6.00;5.00;;;;;9.73;61.64;102140.13;5022478;28;45223;-65
2022/03/14 07:21:28;;;;;;;;;9.50;5.25;;;;;9.82;62.14;102162.28;5023452;28;47191;-65
2022/03/14 07:23:55;;;;;;;;;6.50;5.75;;;;;9.75;62.08;102156.97;5040510;28;45464;-65
2022/03/14 07:26:21;;;;;;;;;11.25;5.75;;;;;9.82;61.95;102169.38;5038976;28;45522;-65
2022/03/14 07:28:48;;;;;;;;;5.00;4.75;;;;;9.71;61.78;102148.13;5031285;28;45505;-65
2022/03/14 07:31:13;;;;;;;;;9.00;6.25;;;;;9.73;61.89;102165.00;5032250;28;46885;-65
2022/03/14 07:33:39;;;;;;;;;5.25;5.25;;;;;9.79;62.36;102174.75;5033803;28;45466;-65
2022/03/14 07:36:04;;;;;;;;;7.00;6.25;;;;;9.74;61.79;102168.53;5023102;28;45566;-65
2022/03/14 07:38:30;;;;;;;;;8.00;5.00;;;;;9.70;61.88;102153.47;5033334;28;45308;-65
2022/03/14 07:40:55;;;;;;;;;9.00;7.75;;;;;9.82;61.91;102180.94;5036539;28;46873;-65
2022/03/14 07:43:21;;;;;;;;;5.00;5.00;;;;;9.84;61.86;102196.94;5028557;28;45262;-65
2022/03/14 07:45:46;;;;;;;;;6.25;5.50;;;;;9.87;62.30;102193.34;5034700;28;45285;-65
2022/03/14 07:48:13;;;;;;;;;7.00;5.50;;;;;9.78;61.84;102197.84;5027000;28;46143;-65
2022/03/14 07:50:38;;;;;;;;;7.00;4.00;;;;;9.84;61.83;102207.63;5028499;28;45526;-65
2022/03/14 07:53:06;;;;;;;;;6.00;5.00;;;;;9.92;62.14;102210.22;5023937;28;45800;-65
2022/03/14 07:55:31;;;;;;;;;5.00;5.00;;;;;9.91;62.22;102211.13;5029713;28;45472;-64
2022/03/14 07:57:57;;;;;;;;;8.00;5.50;;;;;9.91;61.89;102225.34;5036127;28;45282;-65
2022/03/14 08:00:22;;;;;;;;;10.00;6.25;;;;;9.91;62.24;102214.66;5024933;28;48254;-65
2022/03/14 08:02:49;;;;;;;;;8.75;7.75;;;;;9.96;61.93;102225.31;5037682;28;45374;-65
2022/03/14 08:05:16;;;;;;;;;11.00;9.00;;;;;9.97;62.13;102235.06;5038719;28;45591;-65
2022/03/14 08:07:46;;;;;;;;;8.00;8.00;;;;;9.97;62.52;102230.66;5021632;28;45523;-65
2022/03/14 08:10:15;;;;;;;;;9.00;6.25;;;;;9.98;62.24;102236.88;5035121;28;48112;-65
2022/03/14 08:12:51;;;;;;;;;10.50;7.75;;;;;10.00;61.81;102230.59;5036604;28;45575;-67
2022/03/14 08:15:31;;;;;;;;;6.50;6.50;;;;;9.97;61.99;102232.41;5037374;28;45720;-65
2022/03/14 08:18:00;;;;;;;;;9.50;6.75;;;;;9.91;62.41;102228.00;5024605;28;45611;-65
2022/03/14 08:20:27;;;;;;;;;6.00;4.00;;;;;9.84;62.15;102215.63;5020484;28;46002;-65
2022/03/14 08:22:53;;;;;;;;;9.25;7.00;;;;;9.81;62.19;102216.50;5031151;28;45454;-64
2022/03/14 08:25:20;;;;;;;;;8.00;8.00;;;;;9.84;62.36;102218.28;5034716;28;45486;-65
2022/03/14 08:27:46;;;;;;;;;6.75;5.50;;;;;9.87;62.05;102228.03;5037569;28;46379;-64
2022/03/14 08:30:12;;;;;;;;;8.50;8.00;;;;;9.93;62.72;102247.56;5027330;28;46386;-63
2022/03/14 08:32:39;;;;;;;;;10.00;6.00;;;;;9.91;62.40;102249.34;5030250;28;45751;-74
2022/03/14 08:35:09;;;;;;;;;9.00;8.00;;;;;9.98;62.67;102253.75;5035436;28;45450;-78
2022/03/14 08:37:36;;;;;;;;;9.75;6.25;;;;;9.99;62.82;102254.66;5029951;28;45338;-82
2022/03/14 08:40:02;;;;;;;;;11.50;7.00;;;;;9.95;62.71;102251.09;5036924;28;46327;-69
2022/03/14 08:42:28;;;;;;;;;6.75;6.75;;;;;9.96;62.62;102258.22;5026465;28;45308;-76
2022/03/14 08:44:53;;;;;;;;;7.25;6.00;;;;;10.03;62.84;102264.41;5033987;28;45485;-71
2022/03/14 08:47:19;;;;;;;;;10.50;9.25;;;;;9.99;62.73;102252.88;5034575;28;45514;-72
2022/03/14 08:49:44;;;;;;;;;10.00;10.00;;;;;10.08;62.56;102262.59;5031444;28;45663;-72
2022/03/14 08:52:10;;;;;;;;;6.50;6.50;;;;;10.11;63.05;102269.69;5032724;28;45978;-71
2022/03/14 08:54:35;;;;;;;;;9.00;8.00;;;;;10.02;63.13;102252.84;5031592;28;45436;-71
2022/03/14 08:57:01;;;;;;;;;9.75;8.25;;;;;10.14;62.93;102275.91;5034296;28;45404;-72
2022/03/14 08:59:26;;;;;;;;;11.00;10.00;;;;;10.09;62.51;102263.47;5020132;28;46097;-72
2022/03/14 09:01:51;;;;;;;;;8.00;5.50;;;;;10.12;63.07;102268.78;5025076;28;45209;-72
2022/03/14 09:04:17;;;;;;;;;13.25;7.00;;;;;10.20;63.02;102280.31;5019161;28;45544;-71
2022/03/14 09:06:43;;;;;;;;;8.50;7.50;;;;;10.20;63.03;102278.50;5019967;28;45381;-71
2022/03/14 09:09:08;;;;;;;;;10.50;7.00;;;;;10.27;63.23;102284.69;5026325;28;46126;-70
2022/03/14 09:11:34;;;;;;;;;9.50;6.25;;;;;10.30;63.36;102275.78;5046585;28;45418;-70
2022/03/14 09:13:59;;;;;;;;;6.50;6.00;;;;;10.33;63.18;102273.16;5040219;28;45448;-70
2022/03/14 09:16:25;;;;;;;;;11.25;9.00;;;;;10.33;63.29;102275.81;5036227;28;45411;-70
2022/03/14 09:18:52;;;;;;;;;8.25;6.50;;;;;10.35;63.16;102274.00;5043519;28;46295;-70
2022/03/14 09:21:18;;;;;;;;;9.75;7.75;;;;;10.43;62.92;102290.00;5038557;28;45357;-70
2022/03/14 09:23:43;;;;;;;;;10.00;9.00;;;;;10.26;62.45;102258.91;5041304;28;45545;-71
2022/03/14 09:26:09;;;;;;;;;8.00;7.50;;;;;10.50;62.85;102295.25;5029169;28;45364;-71
2022/03/14 09:28:36;;;;;;;;;9.00;9.00;;;;;10.54;63.24;102288.09;5020954;28;46415;-70
2022/03/14 09:31:02;;;;;;;;;10.25;8.50;;;;;10.63;63.48;102301.41;5039058;28;45661;-71
2022/03/14 09:33:28;;;;;;;;;11.75;10.50;;;;;10.61;63.00;102284.50;5027160;28;45332;-71
2022/03/14 09:35:53;;;;;;;;;14.25;11.00;;;;;10.64;63.14;102281.81;5027459;28;45419;-70
2022/03/14 09:38:19;;;;;;;;;7.75;7.75;;;;;10.70;62.91;102288.88;5028742;28;45792;-73
2022/03/14 09:40:48;;;;;;;;;13.00;10.75;;;;;10.83;63.30;102301.25;5025756;28;45360;-71
2022/03/14 09:43:17;;;;;;;;;9.75;9.75;;;;;10.92;63.45;102303.81;5022863;28;45254;-69
2022/03/14 09:45:47;;;;;;;;;11.50;9.25;;;;;10.91;63.59;102291.38;5034761;28;45678;-70
2022/03/14 09:48:14;;;;;;;;;10.50;10.50;;;;;11.06;62.86;102302.78;5030311;28;45419;-70
2022/03/14 09:50:41;;;;;;;;;12.25;10.50;;;;;11.03;62.70;102289.50;5016891;28;45648;-70
2022/03/14 09:53:09;;;;;;;;;9.75;8.00;;;;;11.15;63.34;102308.06;5019370;28;45415;-69
2022/03/14 09:55:44;;;;;;;;;11.75;11.00;;;;;11.20;62.97;102305.34;5020757;28;45459;-70
2022/03/14 09:58:28;;;;;;;;;12.50;11.50;;;;;11.19;62.42;102292.88;5019329;28;46399;-70
2022/03/14 10:00:54;;;;;;;;;11.25;9.25;;;;;11.29;62.50;102302.56;5038803;28;45474;-70
2022/03/14 10:03:21;;;;;;;;;12.50;11.50;;;;;11.34;62.23;102308.75;5030365;28;45323;-70
2022/03/14 10:05:47;;;;;;;;;10.00;10.00;;;;;11.30;62.34;102299.88;5024837;28;45442;-69
2022/03/14 10:08:13;;;;;;;;;10.50;10.25;;;;;11.36;62.58;102303.41;5019095;28;46373;-70
2022/03/14 10:10:40;;;;;;;;;13.25;9.00;;;;;11.47;62.47;102313.06;5034552;28;45464;-70
2022/03/14 10:13:08;;;;;;;;;11.00;8.50;;;;;11.43;62.26;102295.31;5038380;28;45275;-70
2022/03/14 10:15:37;;;;;;;;;10.25;8.75;;;;;11.47;62.60;102305.03;5039338;28;45556;-70
2022/03/14 10:18:15;;;;;;;;;12.25;11.50;;;;;11.58;62.27;102301.41;5037465;28;48132;-70
2022/03/14 10:21:10;;;;;;;;;10.75;7.25;;;;;11.64;62.57;102299.53;5039020;28;45228;-70
2022/03/14 10:23:39;;;;;;;;;7.50;5.00;;;;;11.65;61.70;102308.44;5023372;28;45387;-70
2022/03/14 10:26:06;;;;;;;;;12.25;10.50;;;;;11.65;62.05;102311.97;5027693;28;45762;-70
2022/03/14 10:28:35;;;;;;;;;12.00;9.00;;;;;11.71;62.18;102304.78;5034102;28;47754;-70
2022/03/14 10:31:03;;;;;;;;;6.50;6.50;;;;;11.84;62.02;102318.00;5039472;28;45861;-70
2022/03/14 10:33:30;;;;;;;;;8.25;8.25;;;;;11.90;62.37;102318.84;5020949;28;45369;-70
2022/03/14 10:35:56;;;;;;;;;13.50;12.75;;;;;11.98;62.05;102319.66;5031763;28;45333;-70
2022/03/14 10:38:23;;;;;;;;;10.75;7.75;;;;;12.02;61.90;102316.91;5024602;28;48450;-70
2022/03/14 10:40:50;;;;;;;;;8.25;8.25;;;;;12.07;61.78;102313.28;5020112;28;45689;-70
2022/03/14 10:43:27;;;;;;;;;9.00;7.25;;;;;12.21;61.71;102322.91;5032742;28;45398;-70
2022/03/14 10:45:56;;;;;;;;;8.50;8.50;;;;;12.27;61.23;102324.59;5029994;28;45407;-69
2022/03/14 10:48:45;;;;;;;;;7.00;6.00;;;;;12.32;60.92;102314.72;5024524;28;45485;-69
2022/03/14 10:51:14;;;;;;;;;6.25;5.00;;;;;12.37;61.09;102311.97;5038691;28;45311;-71
2022/03/14 10:53:47;;;;;;;;;7.50;7.50;;;;;12.41;61.11;102303.88;5022367;28;45525;-69
2022/03/14 10:56:14;;;;;;;;;7.50;5.50;;;;;12.42;60.63;102307.44;5023492;28;45484;-69
2022/03/14 10:58:40;;;;;;;;;12.50;8.00;;;;;12.49;60.61;102314.44;5018610;28;45470;-69
2022/03/14 11:01:10;;;;;;;;;13.00;6.50;;;;;12.51;60.60;102309.97;5022337;28;45999;-69
2022/03/14 11:03:41;;;;;;;;;8.00;7.00;;;;;12.51;60.41;102301.03;5031499;28;45234;-69
2022/03/14 11:06:13;;;;;;;;;8.50;5.25;;;;;12.66;60.50;102321.34;5035315;28;45638;-69
2022/03/14 11:08:42;;;;;;;;;8.25;4.50;;;;;12.72;60.47;102314.09;5030442;28;45379;-68
2022/03/14 11:11:14;;;;;;;;;5.25;5.00;;;;;12.78;59.65;102319.38;5018791;28;45211;-71
2022/03/14 11:13:48;;;;;;;;;7.50;3.00;;;;;12.73;59.39;102301.56;5027569;28;45327;-71
2022/03/14 11:16:29;;;;;;;;;6.00;5.00;;;;;12.89;59.61;102318.28;5035454;28;45475;-71
2022/03/14 11:18:54;;;;;;;;;8.00;6.00;;;;;12.89;59.94;102308.44;5024947;28;45320;-71
2022/03/14 11:21:24;;;;;;;;;5.75;3.75;;;;;13.02;58.59;102311.81;5019418;28;45811;-71